Surigao, Philippines
Current Conditions -  °F | °C
As of 1:00 PM on Thursday 23 Oct 2014 (Local Time) from RPVM Reporting Station
Scattered Clouds Scattered Clouds  
Wind Chill: 90°   Ceiling: Unl
Heat Index: 102°   Visibility: 6mi
Dew Point: 77°   Wind: 16mph
Humidity: 66%   Direction: 20°NNE
Pressure: 29.8"   Gusts: NA
Location:  9.8°N, 125.47°E
Report Text: RPVM 230500Z 02014KT 9999 FEW018CB SCT300 32/25 Q1009 RMK A2980 CB SSE NW AND OVHD
Loading
Personal Weather Stations






























Interactive Weather Map
Tropical Storm Tracking
New forecast layout! Learn more

10-Day Weather Forecast

Advertisements
Track Severe Weather on mobile